Time;durP1;ratioP1;P1;durP2;ratioP2;P2;SDS_P1;SDS_P2;PMS_P1;PMS_P2;Temp;Humidity;BMP_temperature;BMP_pressure;BME280_temperature;BME280_humidity;BME280_pressure;Samples;Min_cycle;Max_cycle;Signal;HPM_P1;HPM_P2
2022/07/30 00:01:28;;;;;;;16.38;12.27;;;21.50;97.10;;;;;;4669907;30;20046;-82
2022/07/30 00:03:53;;;;;;;12.70;10.32;;;21.40;98.30;;;;;;4669649;30;20557;-82
2022/07/30 00:06:28;;;;;;;16.40;10.63;;;21.40;97.50;;;;;;4668039;30;20038;-81
2022/07/30 00:08:54;;;;;;;13.80;11.07;;;21.40;97.30;;;;;;4667554;30;20598;-82
2022/07/30 00:11:20;;;;;;;15.55;10.50;;;21.70;97.90;;;;;;4667830;30;20141;-82
2022/07/30 00:13:59;;;;;;;13.70;11.13;;;21.40;97.60;;;;;;4669493;30;20070;-82
2022/07/30 00:16:54;;;;;;;17.25;10.68;;;21.40;97.50;;;;;;4667741;30;20046;-82
2022/07/30 00:19:20;;;;;;;17.77;11.85;;;21.70;97.90;;;;;;4657171;30;20104;-82
2022/07/30 00:21:47;;;;;;;19.30;12.35;;;21.40;98.40;;;;;;4669425;30;20042;-81
2022/07/30 00:24:12;;;;;;;15.70;11.93;;;22.60;98.60;;;;;;4667789;30;20417;-81
2022/07/30 00:27:07;;;;;;;14.38;11.52;;;21.20;98.10;;;;;;4669051;30;20130;-82
2022/07/30 00:29:32;;;;;;;18.88;12.35;;;21.20;97.80;;;;;;4668864;30;20287;-81
2022/07/30 00:31:58;;;;;;;14.32;11.23;;;21.30;98.30;;;;;;4668761;30;20343;-82
2022/07/30 00:34:27;;;;;;;19.67;12.98;;;21.20;98.10;;;;;;4667666;30;20185;-81
2022/07/30 00:36:53;;;;;;;13.20;10.98;;;21.20;98.10;;;;;;4669029;30;20080;-81
2022/07/30 00:39:39;;;;;;;16.88;11.80;;;21.10;98.40;;;;;;4668817;30;20290;-82
2022/07/30 00:42:08;;;;;;;14.95;11.80;;;21.30;99.00;;;;;;4667150;30;20134;-81
2022/07/30 00:44:34;;;;;;;16.85;12.40;;;21.20;98.40;;;;;;4668646;30;20049;-80
2022/07/30 00:47:00;;;;;;;17.00;12.90;;;21.40;99.00;;;;;;4668137;30;20054;-82
2022/07/30 00:49:26;;;;;;;19.25;11.95;;;21.00;98.60;;;;;;4668235;30;20694;-81
2022/07/30 00:52:00;;;;;;;16.80;12.02;;;19.30;98.30;;;;;;4667102;30;20256;-81
2022/07/30 00:54:44;;;;;;;16.42;12.02;;;20.90;98.70;;;;;;4668553;30;20117;-81
2022/07/30 00:57:10;;;;;;;;;;;20.90;99.10;;;;;;4668599;30;20042;-82
2022/07/30 00:59:36;;;;;;;14.93;11.30;;;20.90;99.10;;;;;;4667215;30;19939;-82
2022/07/30 01:02:05;;;;;;;20.60;13.40;;;20.80;98.80;;;;;;4668293;30;20580;-81
2022/07/30 01:04:31;;;;;;;18.55;11.63;;;18.60;98.50;;;;;;4666737;30;20457;-82
2022/07/30 01:06:57;;;;;;;18.30;12.75;;;20.80;99.20;;;;;;4668386;30;20499;-83
2022/07/30 01:09:23;;;;;;;17.50;12.25;;;;;;;;;;4668432;30;20173;-83
2022/07/30 01:11:49;;;;;;;15.38;12.18;;;;;;;;;;4666943;30;20128;-82
2022/07/30 01:14:15;;;;;;;14.52;11.15;;;;;;;;;;4668500;30;20649;-82
2022/07/30 01:16:41;;;;;;;14.38;11.27;;;20.70;98.90;;;;;;4666794;30;20319;-83
2022/07/30 01:22:14;;;;;;;17.52;12.05;;;20.70;99.10;;;;;;4668513;30;20155;-82
2022/07/30 01:24:46;;;;;;;18.85;13.55;;;20.70;99.20;;;;;;4668334;30;20050;-83
2022/07/30 01:27:14;;;;;;;19.20;12.32;;;20.70;99.10;;;;;;4667604;30;20412;-80
2022/07/30 01:29:45;;;;;;;17.10;12.05;;;20.60;99.10;;;;;;4667959;30;20057;-84
2022/07/30 01:32:13;;;;;;;17.98;12.02;;;20.70;99.10;;;;;;4667937;30;20343;-84
2022/07/30 01:34:40;;;;;;;17.90;12.23;;;20.70;98.80;;;;;;4666870;30;20042;-83
2022/07/30 01:37:08;;;;;;;16.30;11.75;;;20.60;98.90;;;;;;4666735;30;20049;-82
2022/07/30 01:39:35;;;;;;;16.13;11.57;;;20.60;99.20;;;;;;4667691;30;20037;-82
2022/07/30 01:42:04;;;;;;;16.92;12.63;;;20.70;99.10;;;;;;4668213;30;20042;-82
2022/07/30 01:44:31;;;;;;;15.32;11.65;;;20.70;99.20;;;;;;4666674;30;20069;-83
2022/07/30 01:46:58;;;;;;;23.38;16.17;;;20.70;99.00;;;;;;4666476;30;20133;-83
2022/07/30 01:49:26;;;;;;;18.85;14.18;;;21.60;99.30;;;;;;4667992;30;20132;-83
2022/07/30 01:51:53;;;;;;;17.25;13.35;;;20.60;99.10;;;;;;4668176;30;20116;-84
2022/07/30 01:54:25;;;;;;;18.00;12.90;;;20.70;99.00;;;;;;4666378;30;20042;-81
2022/07/30 01:56:57;;;;;;;16.63;12.82;;;20.60;98.70;;;;;;4666467;30;20256;-83
2022/07/30 01:59:25;;;;;;;18.52;12.35;;;20.60;99.20;;;;;;4669323;30;20125;-83
2022/07/30 02:01:51;;;;;;;14.95;11.93;;;20.60;99.10;;;;;;4671653;30;20584;-82
2022/07/30 02:04:23;;;;;;;17.90;12.38;;;20.60;99.10;;;;;;4671461;30;20038;-82
2022/07/30 02:07:22;;;;;;;15.40;12.05;;;20.50;99.30;;;;;;4671377;30;20509;-82
2022/07/30 02:10:10;;;;;;;15.25;11.80;;;20.50;99.40;;;;;;4668669;30;20070;-83
2022/07/30 02:12:42;;;;;;;17.30;11.35;;;20.50;99.30;;;;;;4669576;30;20053;-83
2022/07/30 02:15:22;;;;;;;14.70;11.27;;;20.50;99.40;;;;;;4671253;30;20038;-83
2022/07/30 02:18:06;;;;;;;15.68;11.43;;;20.50;99.30;;;;;;4671164;30;20350;-81
2022/07/30 02:20:34;;;;;;;14.23;11.27;;;20.50;99.30;;;;;;4671250;30;20417;-81
2022/07/30 02:23:09;;;;;;;17.17;12.75;;;20.60;99.20;;;;;;4671660;30;20629;-82
2022/07/30 02:25:43;;;;;;;15.38;11.10;;;20.60;99.50;;;;;;4670443;30;20038;-82
2022/07/30 02:28:12;;;;;;;17.10;12.50;;;20.50;99.60;;;;;;4672475;30;20519;-83
2022/07/30 02:30:46;;;;;;;17.40;11.88;;;20.60;99.50;;;;;;4672833;30;20050;-82
2022/07/30 02:33:25;;;;;;;17.38;11.07;;;20.60;99.70;;;;;;4669839;30;20549;-83
2022/07/30 02:35:53;;;;;;;15.13;11.38;;;20.70;99.30;;;;;;4671645;30;20127;-82
2022/07/30 02:38:20;;;;;;;16.40;11.50;;;20.70;99.20;;;;;;4670174;30;20157;-83
2022/07/30 02:40:49;;;;;;;15.90;11.63;;;21.10;99.30;;;;;;4671383;30;20554;-81
2022/07/30 02:43:15;;;;;;;16.58;11.93;;;20.70;99.40;;;;;;4670810;30;20066;-83
2022/07/30 02:45:43;;;;;;;14.18;11.93;;;20.90;99.30;;;;;;4669753;30;20133;-81
2022/07/30 02:48:13;;;;;;;15.07;10.85;;;20.80;99.60;;;;;;4670861;30;20046;-81
2022/07/30 02:50:40;;;;;;;15.70;12.05;;;20.60;99.30;;;;;;4670745;30;20462;-82
2022/07/30 02:53:09;;;;;;;17.85;13.10;;;20.60;99.10;;;;;;4669737;30;20054;-82
2022/07/30 02:55:37;;;;;;;15.77;11.23;;;20.70;99.20;;;;;;4669736;30;20434;-81
2022/07/30 02:58:06;;;;;;;15.15;12.15;;;20.60;99.10;;;;;;4670490;30;20297;-82
2022/07/30 03:00:38;;;;;;;16.38;11.50;;;20.60;99.20;;;;;;4669057;30;20069;-82
2022/07/30 03:03:06;;;;;;;17.35;11.88;;;20.50;99.50;;;;;;4668724;30;20042;-81
2022/07/30 03:05:33;;;;;;;15.07;11.65;;;20.50;99.50;;;;;;4670379;30;20246;-81
2022/07/30 03:08:03;;;;;;;18.35;11.70;;;20.50;99.60;;;;;;4670244;30;20113;-82
2022/07/30 03:10:30;;;;;;;14.70;11.73;;;;;;;;;;4668259;30;20042;-82
2022/07/30 03:13:01;;;;;;;18.67;12.60;;;20.40;99.40;;;;;;4669958;30;20328;-81
2022/07/30 03:15:48;;;;;;;17.50;12.40;;;20.30;99.60;;;;;;4670061;30;20038;-80
2022/07/30 03:18:24;;;;;;;15.20;12.57;;;20.30;99.80;;;;;;4669278;30;20405;-81
2022/07/30 03:23:50;;;;;;;17.13;11.90;;;19.20;99.90;;;;;;4670120;30;20179;-81
2022/07/30 03:26:20;;;;;;;15.40;11.07;;;20.00;99.90;;;;;;4670155;30;20038;-81
2022/07/30 03:28:46;;;;;;;15.85;11.60;;;19.90;99.90;;;;;;4670036;30;20042;-82
2022/07/30 03:31:14;;;;;;;17.98;12.65;;;19.90;99.90;;;;;;4670086;30;20159;-81
2022/07/30 03:33:42;;;;;;;18.17;12.52;;;19.90;99.90;;;;;;4669944;30;20042;-81
2022/07/30 03:36:11;;;;;;;14.05;11.27;;;19.70;99.90;;;;;;4670049;30;20093;-82
2022/07/30 03:38:38;;;;;;;15.25;12.18;;;19.70;99.90;;;;;;4668706;30;20042;-82
2022/07/30 03:41:06;;;;;;;18.33;12.43;;;19.60;99.90;;;;;;4670483;30;20042;-80
2022/07/30 03:43:33;;;;;;;18.77;11.80;;;19.60;99.90;;;;;;4670400;30;20244;-82
2022/07/30 03:46:00;;;;;;;16.67;11.90;;;19.60;99.90;;;;;;4670688;30;20046;-80
2022/07/30 03:48:33;;;;;;;17.02;12.35;;;19.70;99.90;;;;;;4677096;30;20038;-81
2022/07/30 03:51:02;;;;;;;18.00;11.55;;;19.60;99.90;;;;;;4683370;30;20042;-82
2022/07/30 03:53:29;;;;;;;19.45;12.88;;;19.70;99.90;;;;;;4680770;30;20066;-83
2022/07/30 03:55:59;;;;;;;18.13;12.27;;;16.70;99.90;;;;;;4679615;30;20049;-80
2022/07/30 03:58:27;;;;;;;16.25;11.25;;;19.60;99.90;;;;;;4673214;30;20283;-81
2022/07/30 04:00:53;;;;;;;21.27;13.73;;;20.20;99.90;;;;;;4672067;30;20747;-82
2022/07/30 04:03:25;;;;;;;18.58;13.88;;;19.70;99.90;;;;;;4671481;30;20195;-80
2022/07/30 04:06:00;;;;;;;18.73;12.75;;;19.60;99.90;;;;;;4670585;30;20117;-81
2022/07/30 04:08:29;;;;;;;19.45;14.23;;;19.60;99.90;;;;;;4670760;30;20061;-81
2022/07/30 04:10:55;;;;;;;16.98;12.77;;;19.70;99.90;;;;;;4670825;30;20038;-81
2022/07/30 04:13:24;;;;;;;17.67;11.60;;;19.70;99.90;;;;;;4669078;30;20093;-80
2022/07/30 04:16:17;;;;;;;19.58;12.85;;;19.70;99.90;;;;;;4670304;30;20034;-83
2022/07/30 04:18:49;;;;;;;19.13;13.13;;;19.60;99.90;;;;;;4669661;30;20101;-82
2022/07/30 04:21:22;;;;;;;19.42;13.30;;;19.40;99.90;;;;;;4669966;30;20496;-80
2022/07/30 04:23:49;;;;;;;16.17;12.55;;;20.00;99.90;;;;;;4669993;30;20055;-81
2022/07/30 04:26:18;;;;;;;17.63;12.50;;;19.50;99.90;;;;;;4668241;30;20034;-81
2022/07/30 04:28:45;;;;;;;19.60;11.73;;;19.50;99.90;;;;;;4668996;30;20552;-81
2022/07/30 04:31:11;;;;;;;19.65;12.13;;;19.20;99.90;;;;;;4669426;30;20516;-82
2022/07/30 04:33:37;;;;;;;16.50;12.60;;;19.20;99.90;;;;;;4669706;30;20085;-81
2022/07/30 04:36:39;;;;;;;15.85;12.32;;;19.10;99.90;;;;;;4668981;30;20074;-82
2022/07/30 04:39:04;;;;;;;17.65;12.25;;;19.50;99.90;;;;;;4614922;31;20269;-82
2022/07/30 04:41:33;;;;;;;17.42;13.23;;;19.10;99.90;;;;;;4615237;31;20262;-82
2022/07/30 04:44:07;;;;;;;15.50;11.35;;;19.20;99.90;;;;;;4615422;30;20036;-82
2022/07/30 04:46:56;;;;;;;16.73;11.70;;;19.20;99.90;;;;;;4615304;31;20210;-82
2022/07/30 04:49:22;;;;;;;15.65;11.52;;;19.70;99.90;;;;;;4615202;31;20039;-83
2022/07/30 04:51:49;;;;;;;15.40;11.27;;;19.30;99.90;;;;;;4615423;31;20051;-83
2022/07/30 04:54:24;;;;;;;18.70;11.13;;;19.40;99.90;;;;;;4601257;31;20544;-83
2022/07/30 04:56:51;;;;;;;13.82;11.23;;;;;;;;;;4614617;30;20407;-82
2022/07/30 04:59:17;;;;;;;15.85;11.63;;;19.50;99.90;;;;;;4614507;31;20055;-82
2022/07/30 05:01:55;;;;;;;20.33;12.70;;;19.70;99.90;;;;;;4614944;31;20047;-83
2022/07/30 05:04:28;;;;;;;22.30;14.45;;;19.70;99.90;;;;;;4601189;31;20043;-82
2022/07/30 05:06:56;;;;;;;18.08;11.52;;;19.80;99.90;;;;;;4614881;31;20131;-82
2022/07/30 05:09:30;;;;;;;15.43;10.82;;;19.90;99.90;;;;;;4614868;31;20513;-79
2022/07/30 05:11:56;;;;;;;;;;;20.10;99.90;;;;;;4615304;30;20081;-82
2022/07/30 05:14:36;;;;;;;17.13;12.35;;;20.20;99.90;;;;;;4614913;31;19954;-82
2022/07/30 05:17:06;;;;;;;18.42;12.02;;;20.80;99.90;;;;;;4666896;30;20519;-83
2022/07/30 05:19:32;;;;;;;16.27;12.00;;;20.80;99.90;;;;;;4668137;30;20054;-83
2022/07/30 05:22:21;;;;;;;16.85;11.73;;;21.30;99.90;;;;;;4667324;30;20049;-81
2022/07/30 05:24:47;;;;;;;16.83;13.40;;;21.10;99.90;;;;;;4667581;30;20070;-82
2022/07/30 05:27:13;;;;;;;16.85;11.05;;;21.10;99.90;;;;;;4667304;30;20034;-84
2022/07/30 05:29:43;;;;;;;16.58;12.32;;;;;;;;;;4668553;30;20052;-82
2022/07/30 05:32:35;;;;;;;17.35;12.25;;;21.40;99.40;;;;;;4666854;30;20145;-82
2022/07/30 05:35:00;;;;;;;18.00;12.60;;;21.30;99.80;;;;;;4616465;30;20071;-82
2022/07/30 05:37:30;;;;;;;16.50;12.80;;;21.70;99.20;;;;;;4617976;31;20134;-82
2022/07/30 05:40:05;;;;;;;15.05;11.32;;;21.80;99.20;;;;;;4618779;31;20493;-82
2022/07/30 05:42:34;;;;;;;18.20;11.25;;;22.00;98.80;;;;;;4605218;31;20047;-81
2022/07/30 05:45:00;;;;;;;19.52;12.65;;;22.00;98.80;;;;;;4619967;31;20039;-81
2022/07/30 05:47:49;;;;;;;19.52;13.65;;;19.40;97.60;;;;;;4619941;31;20466;-82
2022/07/30 05:50:24;;;;;;;16.98;12.40;;;22.30;98.00;;;;;;4618978;31;20120;-82
2022/07/30 05:52:57;;;;;;;16.52;12.75;;;22.10;97.70;;;;;;4619009;31;20763;-82
2022/07/30 05:55:23;;;;;;;18.73;11.45;;;21.50;97.10;;;;;;4618661;31;20031;-81
2022/07/30 05:58:16;;;;;;;16.85;12.20;;;23.10;97.90;;;;;;4618699;30;20044;-80
2022/07/30 06:00:49;;;;;;;16.92;12.00;;;23.50;97.40;;;;;;4584617;31;20334;-82
2022/07/30 06:03:21;;;;;;;;;;;23.30;97.40;;;;;;4585524;31;20051;-83
2022/07/30 06:05:47;;;;;;;16.90;12.02;;;22.90;96.60;;;;;;4584721;31;20132;-82
2022/07/30 06:08:12;;;;;;;22.20;12.43;;;23.40;96.70;;;;;;4583890;31;20826;-82
2022/07/30 06:10:38;;;;;;;17.58;12.32;;;23.50;96.00;;;;;;4583989;31;20090;-83
2022/07/30 06:13:04;;;;;;;14.48;11.15;;;23.40;96.30;;;;;;4628795;30;20440;-83
2022/07/30 06:15:30;;;;;;;16.27;11.52;;;23.60;95.90;;;;;;4634332;30;20461;-81
2022/07/30 06:17:58;;;;;;;17.75;11.65;;;23.80;95.70;;;;;;4634405;30;20649;-81
2022/07/30 06:20:24;;;;;;;15.77;11.65;;;23.60;95.60;;;;;;4634128;30;20126;-81
2022/07/30 06:22:50;;;;;;;15.90;11.10;;;24.00;95.70;;;;;;4633638;30;20042;-83
2022/07/30 06:25:16;;;;;;;13.40;10.10;;;24.20;95.30;;;;;;4633452;30;20050;-81
2022/07/30 06:27:44;;;;;;;14.38;10.20;;;24.30;94.70;;;;;;4633893;30;20050;-81
2022/07/30 06:30:13;;;;;;;13.88;9.95;;;24.50;94.20;;;;;;4633691;30;20484;-83
2022/07/30 06:32:39;;;;;;;13.82;10.30;;;24.70;93.70;;;;;;4633440;30;20054;-81
2022/07/30 06:35:06;;;;;;;17.30;11.52;;;24.80;93.60;;;;;;4619166;30;20325;-81
2022/07/30 06:37:32;;;;;;;16.75;10.80;;;25.00;93.10;;;;;;4651597;30;20046;-82
2022/07/30 06:40:01;;;;;;;14.75;11.02;;;25.10;93.00;;;;;;4670633;30;20060;-82
2022/07/30 06:42:30;;;;;;;15.02;9.93;;;25.10;92.70;;;;;;4670593;30;20045;-81
2022/07/30 06:45:09;;;;;;;15.00;10.75;;;25.10;93.00;;;;;;4669988;30;20267;-82
2022/07/30 06:47:34;;;;;;;15.18;9.93;;;25.30;92.10;;;;;;4669141;30;20045;-83
2022/07/30 06:50:01;;;;;;;16.30;10.57;;;25.60;92.60;;;;;;4668647;30;20042;-82
2022/07/30 06:52:27;;;;;;;14.20;9.95;;;25.20;91.80;;;;;;4668906;30;20140;-82
2022/07/30 06:54:55;;;;;;;15.93;10.93;;;25.20;92.00;;;;;;4670197;30;20236;-81
2022/07/30 06:57:25;;;;;;;15.02;10.88;;;25.20;93.20;;;;;;4669027;30;20470;-82
2022/07/30 06:59:51;;;;;;;14.50;9.90;;;;;;;;;;4671369;30;20207;-82
2022/07/30 07:02:17;;;;;;;16.08;12.02;;;25.40;91.60;;;;;;4670505;30;20049;-81
2022/07/30 07:04:43;;;;;;;18.92;11.88;;;25.80;92.10;;;;;;4670289;30;20228;-83
2022/07/30 07:07:09;;;;;;;14.98;10.88;;;25.50;92.00;;;;;;4668295;30;20042;-83
2022/07/30 07:09:34;;;;;;;14.57;10.73;;;26.30;91.90;;;;;;4668083;30;20073;-81
2022/07/30 07:12:00;;;;;;;14.43;10.52;;;25.70;91.50;;;;;;4669949;30;20050;-82
2022/07/30 07:14:26;;;;;;;16.85;10.73;;;25.80;91.50;;;;;;4670071;30;20042;-81
2022/07/30 07:16:52;;;;;;;16.10;12.00;;;25.90;91.40;;;;;;4670120;30;20427;-83
2022/07/30 07:19:18;;;;;;;15.00;11.00;;;25.80;91.40;;;;;;4668769;30;20525;-83
2022/07/30 07:21:44;;;;;;;16.08;10.82;;;25.60;91.40;;;;;;4670085;30;20026;-82
2022/07/30 07:24:09;;;;;;;12.68;9.63;;;25.70;91.40;;;;;;4669434;30;20077;-82
2022/07/30 07:26:35;;;;;;;14.95;11.27;;;25.80;91.70;;;;;;4668518;30;20034;-83
2022/07/30 07:29:02;;;;;;;15.00;10.88;;;26.10;91.20;;;;;;4668385;30;20392;-83
2022/07/30 07:31:27;;;;;;;17.13;10.18;;;26.50;90.70;;;;;;4669697;30;20038;-83
2022/07/30 07:33:53;;;;;;;13.85;10.23;;;26.40;90.70;;;;;;4669997;30;20275;-83
2022/07/30 07:36:22;;;;;;;17.42;10.95;;;26.60;90.50;;;;;;4669621;30;20068;-84
2022/07/30 07:38:49;;;;;;;13.48;10.38;;;27.00;90.50;;;;;;4667837;30;20099;-82
2022/07/30 07:41:15;;;;;;;18.33;10.13;;;26.70;90.30;;;;;;4669533;30;20133;-83
2022/07/30 07:43:41;;;;;;;14.65;9.43;;;26.90;90.00;;;;;;4669717;30;20057;-81
2022/07/30 07:46:08;;;;;;;15.82;10.18;;;26.90;90.50;;;;;;4669130;30;20403;-82
2022/07/30 07:48:34;;;;;;;13.23;8.90;;;26.60;88.80;;;;;;4669027;30;20052;-83
2022/07/30 07:51:00;;;;;;;12.70;9.52;;;27.20;88.60;;;;;;4669250;30;20538;-81
2022/07/30 07:53:26;;;;;;;14.63;9.32;;;27.30;88.70;;;;;;4669057;30;20046;-83
2022/07/30 07:55:52;;;;;;;14.48;9.25;;;27.40;88.40;;;;;;4669274;30;20046;-83
2022/07/30 07:58:17;;;;;;;12.20;9.15;;;27.50;87.40;;;;;;4668704;30;20232;-81
2022/07/30 08:00:43;;;;;;;14.25;9.63;;;27.50;87.10;;;;;;4668878;30;20550;-81
2022/07/30 08:03:09;;;;;;;14.35;8.98;;;27.60;87.30;;;;;;4668990;30;20294;-82
2022/07/30 08:05:35;;;;;;;17.05;9.10;;;27.90;86.50;;;;;;4668982;30;20049;-84
2022/07/30 08:08:01;;;;;;;12.63;8.77;;;28.10;85.30;;;;;;4667478;30;20510;-83
2022/07/30 08:10:27;;;;;;;12.80;8.85;;;29.90;86.30;;;;;;4667469;30;20438;-82
2022/07/30 08:12:53;;;;;;;14.30;8.77;;;28.60;84.70;;;;;;4668960;30;20058;-81
2022/07/30 08:15:19;;;;;;;14.20;9.10;;;28.80;84.40;;;;;;4667313;30;20034;-82
2022/07/30 08:17:46;;;;;;;14.45;9.60;;;29.00;83.90;;;;;;4667247;30;20092;-83
2022/07/30 08:20:14;;;;;;;13.75;8.77;;;29.20;83.30;;;;;;4668360;30;20037;-82
2022/07/30 08:22:40;;;;;;;12.60;8.45;;;29.40;81.90;;;;;;4668597;30;20042;-81
2022/07/30 08:25:07;;;;;;;15.07;9.77;;;29.50;82.10;;;;;;4668343;30;20246;-82
2022/07/30 08:27:33;;;;;;;16.35;9.90;;;29.60;82.00;;;;;;4666758;30;20046;-81
2022/07/30 08:30:03;;;;;;;13.85;8.65;;;29.80;81.30;;;;;;4668445;30;20519;-82
2022/07/30 08:32:29;;;;;;;14.18;9.57;;;30.30;79.00;;;;;;4668244;30;20057;-83
2022/07/30 08:34:55;;;;;;;11.27;7.88;;;30.70;78.20;;;;;;4668448;30;20103;-81
2022/07/30 08:37:21;;;;;;;15.55;8.98;;;;;;;;;;4669030;30;20076;-82
2022/07/30 08:39:47;;;;;;;12.68;8.57;;;31.00;72.40;;;;;;4668523;30;20244;-83
2022/07/30 08:42:13;;;;;;;15.15;8.55;;;31.00;73.60;;;;;;4668930;30;20072;-81
2022/07/30 08:44:40;;;;;;;12.15;7.70;;;31.00;72.80;;;;;;4668769;30;20358;-82
2022/07/30 08:47:10;;;;;;;11.75;6.75;;;31.00;73.80;;;;;;4668621;30;20042;-81
2022/07/30 08:49:36;;;;;;;13.75;7.78;;;28.50;70.10;;;;;;4668424;30;20064;-81
2022/07/30 08:52:03;;;;;;;12.30;7.28;;;31.00;73.00;;;;;;4667551;30;20072;-82
2022/07/30 08:54:29;;;;;;;11.93;8.20;;;31.10;73.10;;;;;;4668337;30;20042;-80
2022/07/30 08:56:57;;;;;;;12.13;7.47;;;30.80;74.30;;;;;;4669936;30;20129;-80
2022/07/30 08:59:23;;;;;;;14.27;8.45;;;30.60;74.40;;;;;;4668582;30;20073;-82
2022/07/30 09:01:50;;;;;;;12.27;7.18;;;30.50;75.40;;;;;;4669458;30;20295;-81
2022/07/30 09:04:16;;;;;;;11.98;6.85;;;30.40;75.70;;;;;;4668495;30;20042;-83
2022/07/30 09:06:43;;;;;;;11.80;6.50;;;30.40;73.60;;;;;;4667091;30;20050;-83
2022/07/30 09:09:09;;;;;;;10.27;6.47;;;30.30;73.70;;;;;;4668152;30;20057;-83
2022/07/30 09:11:35;;;;;;;9.23;5.47;;;30.10;72.10;;;;;;4667070;30;20053;-82
2022/07/30 09:14:13;;;;;;;10.98;5.50;;;30.10;70.30;;;;;;4668443;30;20043;-83
2022/07/30 09:16:39;;;;;;;11.13;5.45;;;30.00;70.00;;;;;;4669068;30;20179;-83
2022/07/30 09:19:17;;;;;;;8.35;4.72;;;30.10;68.10;;;;;;4668816;30;20434;-83
2022/07/30 09:21:57;;;;;;;9.93;4.82;;;30.50;68.80;;;;;;4666832;30;20454;-82
2022/07/30 09:24:22;;;;;;;10.60;6.35;;;29.90;68.00;;;;;;4666814;30;20246;-82
2022/07/30 09:27:00;;;;;;;9.60;5.40;;;29.70;69.00;;;;;;4668506;30;20657;-82
2022/07/30 09:29:28;;;;;;;11.90;6.15;;;29.90;68.90;;;;;;4668755;30;20038;-82
2022/07/30 09:31:57;;;;;;;11.65;6.45;;;29.90;69.40;;;;;;4668158;30;20275;-82
2022/07/30 09:34:25;;;;;;;12.05;6.10;;;30.10;69.50;;;;;;4667216;30;20034;-83
2022/07/30 09:36:50;;;;;;;10.00;5.65;;;28.80;68.10;;;;;;4668061;30;20042;-82
2022/07/30 09:39:40;;;;;;;10.35;6.68;;;30.10;70.00;;;;;;4668317;30;20046;-83
2022/07/30 09:42:22;;;;;;;10.52;5.47;;;30.10;69.60;;;;;;4666776;30;20054;-81
2022/07/30 09:44:48;;;;;;;8.18;5.03;;;30.20;66.70;;;;;;4668292;30;20443;-82
2022/07/30 09:47:35;;;;;;;8.93;4.00;;;30.30;65.50;;;;;;4668337;30;20737;-81
2022/07/30 09:50:12;;;;;;;9.27;4.97;;;30.50;64.90;;;;;;4666730;30;20070;-83
2022/07/30 09:52:41;;;;;;;9.27;4.80;;;30.40;65.50;;;;;;4668139;30;20527;-82
2022/07/30 09:55:07;;;;;;;8.40;5.00;;;30.40;65.80;;;;;;4666670;30;20055;-81
2022/07/30 09:57:33;;;;;;;10.30;4.20;;;30.10;65.70;;;;;;4668036;30;20414;-82
2022/07/30 10:00:21;;;;;;;7.93;3.55;;;30.10;63.30;;;;;;4666770;30;20046;-80
2022/07/30 10:02:49;;;;;;;8.43;3.25;;;29.90;61.20;;;;;;4667969;30;20041;-82
2022/07/30 10:05:16;;;;;;;8.70;3.55;;;29.80;61.60;;;;;;4667793;30;20042;-82
2022/07/30 10:07:51;;;;;;;6.00;2.42;;;29.70;60.90;;;;;;4667707;30;20060;-82
2022/07/30 10:10:19;;;;;;;7.63;3.28;;;29.90;60.60;;;;;;4667430;30;20506;-83
2022/07/30 10:12:46;;;;;;;5.95;3.08;;;30.20;59.70;;;;;;4667493;30;20503;-83
2022/07/30 10:15:14;;;;;;;6.82;2.65;;;30.50;57.90;;;;;;4666097;30;20045;-83
2022/07/30 10:17:41;;;;;;;5.88;2.97;;;30.30;56.20;;;;;;4667683;30;20458;-81
2022/07/30 10:20:07;;;;;;;4.93;2.08;;;30.80;56.20;;;;;;4668597;30;20069;-82
2022/07/30 10:22:37;;;;;;;6.10;1.92;;;30.80;56.40;;;;;;4670564;30;20767;-83
2022/07/30 10:25:03;;;;;;;4.57;2.28;;;31.00;55.80;;;;;;4670851;30;20100;-82
2022/07/30 10:27:33;;;;;;;4.60;2.15;;;31.10;55.00;;;;;;4670596;30;20042;-82
2022/07/30 10:30:00;;;;;;;5.95;2.50;;;31.30;55.00;;;;;;4671008;30;20121;-82
2022/07/30 10:32:26;;;;;;;5.55;2.40;;;31.40;55.10;;;;;;4669549;30;20070;-82
2022/07/30 10:34:53;;;;;;;5.20;2.30;;;31.60;55.70;;;;;;4670772;30;20037;-81
2022/07/30 10:37:22;;;;;;;4.38;2.00;;;31.80;54.20;;;;;;4670783;30;20291;-83
2022/07/30 10:40:06;;;;;;;6.70;1.85;;;32.00;53.50;;;;;;4670374;30;20034;-83
2022/07/30 10:42:50;;;;;;;4.35;1.95;;;31.40;53.90;;;;;;4670997;30;20052;-86
2022/07/30 10:45:18;;;;;;;6.90;2.20;;;31.20;54.20;;;;;;4670564;30;20046;-82
2022/07/30 10:47:46;;;;;;;4.10;1.77;;;31.10;54.30;;;;;;4670429;30;20061;-83
2022/07/30 10:50:14;;;;;;;6.00;2.45;;;31.00;54.80;;;;;;4670469;30;20042;-82
2022/07/30 10:52:55;;;;;;;6.57;3.33;;;30.90;55.60;;;;;;4669172;30;20054;-81
2022/07/30 10:55:32;;;;;;;3.85;2.03;;;30.70;56.30;;;;;;4668916;30;20046;-82
2022/07/30 10:58:10;;;;;;;5.35;2.30;;;30.50;56.20;;;;;;4670516;30;20246;-82
2022/07/30 11:00:51;;;;;;;5.50;2.05;;;30.30;56.90;;;;;;4669201;30;20038;-83
2022/07/30 11:03:22;;;;;;;4.00;1.73;;;30.10;57.00;;;;;;4670668;30;20315;-84
2022/07/30 11:05:50;;;;;;;4.90;2.03;;;30.00;57.30;;;;;;4670706;30;20104;-82
2022/07/30 11:08:29;;;;;;;5.50;2.20;;;29.80;58.40;;;;;;4670609;30;20056;-84
2022/07/30 11:10:54;;;;;;;5.57;2.03;;;29.50;59.40;;;;;;4670661;30;20046;-84
2022/07/30 11:13:50;;;;;;;4.57;1.63;;;29.00;60.70;;;;;;4668849;30;20695;-82
2022/07/30 11:16:19;;;;;;;5.53;2.30;;;28.50;62.40;;;;;;4669920;30;20034;-81
2022/07/30 11:19:06;;;;;;;4.63;1.83;;;28.10;62.90;;;;;;4670018;30;20065;-82
2022/07/30 11:21:33;;;;;;;3.50;2.00;;;27.80;63.40;;;;;;4668581;30;20114;-82
2022/07/30 11:23:59;;;;;;;4.72;1.75;;;27.40;64.20;;;;;;4668266;30;20497;-82
2022/07/30 11:26:49;;;;;;;3.47;1.48;;;27.00;64.00;;;;;;4669817;30;20139;-80
2022/07/30 11:29:35;;;;;;;2.72;1.40;;;26.80;64.90;;;;;;4602042;31;20390;-83
2022/07/30 11:32:23;;;;;;;3.95;1.63;;;26.40;67.30;;;;;;4616307;31;20296;-82
2022/07/30 11:34:49;;;;;;;6.22;1.67;;;;;;;;;;4616085;30;20354;-83
2022/07/30 11:37:16;;;;;;;7.45;2.42;;;25.60;70.00;;;;;;4616340;31;20302;-84
2022/07/30 11:39:54;;;;;;;8.13;3.17;;;24.90;78.80;;;;;;4614956;30;20271;-80
2022/07/30 11:42:30;;;;;;;7.43;3.28;;;23.80;93.50;;;;;;4614803;31;20126;-79
2022/07/30 11:45:14;;;;;;;5.78;2.17;;;22.60;98.90;;;;;;4615018;30;20052;-81
2022/07/30 11:47:54;;;;;;;4.75;1.88;;;21.80;99.90;;;;;;4614740;31;20047;-81
2022/07/30 11:50:29;;;;;;;6.35;2.03;;;21.30;99.90;;;;;;4615014;31;20051;-83
2022/07/30 11:53:03;;;;;;;5.20;2.28;;;21.00;99.90;;;;;;4614638;31;20216;-82
2022/07/30 11:55:32;;;;;;;10.52;3.85;;;20.80;99.90;;;;;;4614884;31;20135;-84
2022/07/30 11:58:00;;;;;;;13.65;4.85;;;20.60;99.90;;;;;;4600892;31;20043;-83
2022/07/30 12:00:36;;;;;;;7.50;2.97;;;20.20;99.90;;;;;;4614692;30;20226;-84
2022/07/30 12:03:14;;;;;;;11.77;3.00;;;20.00;99.90;;;;;;4601079;31;20127;-85
2022/07/30 12:05:40;;;;;;;6.95;2.75;;;19.90;99.90;;;;;;4627494;30;20451;-84
2022/07/30 12:08:07;;;;;;;8.40;2.63;;;19.90;99.90;;;;;;4667383;30;20077;-84
2022/07/30 12:10:34;;;;;;;10.05;2.55;;;20.00;99.90;;;;;;4667608;30;20462;-84
2022/07/30 12:13:14;;;;;;;6.45;2.67;;;20.00;99.90;;;;;;4675965;30;20050;-84
2022/07/30 12:15:43;;;;;;;7.72;3.08;;;20.10;99.90;;;;;;4674236;30;20045;-86
2022/07/30 12:18:15;;;;;;;8.68;3.20;;;20.10;99.90;;;;;;4671712;30;20072;-85
2022/07/30 12:20:41;;;;;;;8.90;3.97;;;20.20;99.90;;;;;;4670922;30;20438;-86
2022/07/30 12:23:13;;;;;;;7.22;3.00;;;20.20;99.90;;;;;;4667152;30;20096;-84
2022/07/30 12:25:43;;;;;;;6.57;2.80;;;20.20;99.90;;;;;;4667360;30;20038;-85
2022/07/30 12:28:09;;;;;;;8.90;2.40;;;20.30;99.90;;;;;;4667087;30;20587;-85
2022/07/30 12:30:39;;;;;;;5.50;2.17;;;20.00;99.90;;;;;;4667150;30;20503;-84
2022/07/30 12:33:08;;;;;;;9.82;2.83;;;20.10;99.90;;;;;;4668139;30;20038;-85
2022/07/30 12:35:49;;;;;;;5.15;2.30;;;20.00;99.90;;;;;;4666672;30;20034;-84
2022/07/30 12:38:16;;;;;;;9.57;2.97;;;19.80;99.90;;;;;;4669024;30;20053;-85
2022/07/30 12:41:04;;;;;;;4.90;2.17;;;19.70;99.90;;;;;;4666817;30;20042;-85
2022/07/30 12:43:45;;;;;;;12.95;2.60;;;19.70;99.90;;;;;;4665928;30;20042;-85
2022/07/30 12:46:13;;;;;;;5.88;2.28;;;19.80;99.90;;;;;;4666499;30;20563;-84
2022/07/30 12:48:51;;;;;;;5.75;2.42;;;19.80;99.90;;;;;;4666691;30;20110;-84
2022/07/30 12:51:19;;;;;;;4.10;1.90;;;19.90;99.90;;;;;;4666316;30;20362;-83
2022/07/30 12:53:46;;;;;;;11.98;2.38;;;20.00;99.90;;;;;;4666113;30;20117;-83
2022/07/30 12:56:18;;;;;;;7.00;1.90;;;20.20;99.90;;;;;;4666251;30;20507;-83
2022/07/30 12:58:44;;;;;;;3.53;1.40;;;20.50;99.90;;;;;;4667617;30;20500;-83
2022/07/30 13:01:10;;;;;;;3.13;1.33;;;20.80;99.90;;;;;;4667376;30;20515;-82